Time;durP1;ratioP1;P1;durP2;ratioP2;P2;SDS_P1;SDS_P2;PMS_P1;PMS_P2;Temp;Humidity;BMP_temperature;BMP_pressure;BME280_temperature;BME280_humidity;BME280_pressure;Samples;Min_cycle;Max_cycle;Signal;HPM_P1;HPM_P2
2022/01/07 00:01:55;;;;;;;17.35;5.70;;;;;;;3.36;74.42;101279.44;4859675;29;20033;-70
2022/01/07 00:04:21;;;;;;;18.15;6.47;;;;;;;3.36;74.14;101278.59;4858211;29;20038;-69
2022/01/07 00:06:46;;;;;;;11.88;5.53;;;;;;;3.42;74.63;101271.75;4858180;29;20037;-70
2022/01/07 00:09:11;;;;;;;17.33;5.93;;;;;;;3.37;75.14;101274.94;4862424;29;20053;-68
2022/01/07 00:11:36;;;;;;;10.52;5.40;;;;;;;3.35;75.45;101264.41;4862187;29;20034;-69
2022/01/07 00:14:02;;;;;;;14.65;5.57;;;;;;;3.34;75.19;101265.41;4862153;29;20125;-70
2022/01/07 00:16:27;;;;;;;12.65;5.68;;;;;;;3.32;75.29;101262.06;4862608;29;20037;-68
2022/01/07 00:18:53;;;;;;;16.98;6.20;;;;;;;3.29;75.36;101259.72;4862366;29;20526;-68
2022/01/07 00:21:18;;;;;;;16.58;5.88;;;;;;;3.29;76.11;101246.34;4860133;29;20129;-69
2022/01/07 00:23:43;;;;;;;15.43;5.32;;;;;;;3.28;75.44;101246.53;4862166;29;20097;-69
2022/01/07 00:26:08;;;;;;;11.52;5.35;;;;;;;3.22;75.79;101240.00;4862427;29;20070;-69
2022/01/07 00:28:34;;;;;;;13.38;5.40;;;;;;;3.19;75.86;101229.63;4862507;29;20025;-69
2022/01/07 00:30:59;;;;;;;15.95;6.13;;;;;;;3.25;75.78;101246.84;4861630;29;20041;-68
2022/01/07 00:33:24;;;;;;;14.63;5.43;;;;;;;3.24;76.40;101232.63;4858576;29;20041;-69
2022/01/07 00:35:52;;;;;;;12.93;5.50;;;;;;;3.21;77.30;101235.63;4857168;29;20041;-68
2022/01/07 00:38:17;;;;;;;13.60;5.55;;;;;;;3.22;77.43;101223.94;4862060;29;20033;-69
2022/01/07 00:40:42;;;;;;;15.48;5.63;;;;;;;3.18;78.00;101217.25;4861813;29;20032;-70
2022/01/07 00:43:07;;;;;;;15.52;5.78;;;;;;;3.16;77.94;101214.75;4861996;29;20065;-69
2022/01/07 00:45:33;;;;;;;15.43;5.78;;;;;;;3.14;78.41;101202.53;4860737;29;20033;-68
2022/01/07 00:47:58;;;;;;;15.40;5.35;;;;;;;3.13;77.64;101198.22;4862088;29;20048;-69
2022/01/07 00:50:27;;;;;;;13.32;5.47;;;;;;;3.12;78.81;101202.72;4861605;29;20034;-68
2022/01/07 00:52:53;;;;;;;16.73;5.70;;;;;;;3.11;78.15;101194.84;4870846;29;20511;-68
2022/01/07 00:55:19;;;;;;;15.10;5.88;;;;;;;3.12;78.13;101188.50;4880179;29;20120;-69
2022/01/07 00:57:45;;;;;;;10.60;5.53;;;;;;;3.12;77.79;101180.50;4879938;29;20063;-69
2022/01/07 01:00:14;;;;;;;11.38;5.25;;;;;;;3.10;78.12;101179.84;4878136;29;20473;-69
2022/01/07 01:02:40;;;;;;;13.75;5.20;;;;;;;3.12;79.07;101175.97;4877981;29;20033;-69
2022/01/07 01:05:08;;;;;;;16.58;5.32;;;;;;;3.12;78.06;101170.63;4878616;29;20048;-69
2022/01/07 01:07:34;;;;;;;10.80;4.93;;;;;;;3.12;77.74;101162.59;4866489;29;20542;-69
2022/01/07 01:09:59;;;;;;;16.63;5.55;;;;;;;3.15;77.85;101164.09;4878901;29;20043;-68
2022/01/07 01:12:25;;;;;;;15.65;5.22;;;;;;;3.15;78.24;101164.09;4880081;29;20084;-68
2022/01/07 01:14:50;;;;;;;10.75;4.93;;;;;;;3.17;77.50;101148.72;4860273;29;20033;-69
2022/01/07 01:17:15;;;;;;;12.05;4.57;;;;;;;3.16;77.15;101152.41;4861529;29;20047;-69
2022/01/07 01:19:41;;;;;;;13.20;4.88;;;;;;;3.13;77.26;101155.44;4873082;29;20037;-68
2022/01/07 01:22:08;;;;;;;14.18;5.47;;;;;;;3.13;77.64;101148.22;4879441;29;20090;-68
2022/01/07 01:24:33;;;;;;;12.02;4.43;;;;;;;3.16;77.38;101147.06;4879898;29;20045;-69
2022/01/07 01:26:58;;;;;;;11.45;4.90;;;;;;;3.16;76.96;101137.19;4879703;29;20495;-69
2022/01/07 01:29:24;;;;;;;10.70;4.25;;;;;;;3.22;76.53;101134.88;4879596;29;20545;-69
2022/01/07 01:31:50;;;;;;;12.60;4.40;;;;;;;3.21;77.49;101131.34;4879494;29;20280;-68
2022/01/07 01:34:15;;;;;;;10.50;4.28;;;;;;;3.16;76.54;101118.47;4879405;29;20025;-68
2022/01/07 01:36:41;;;;;;;9.77;4.20;;;;;;;3.21;75.87;101126.00;4879938;29;20033;-69
2022/01/07 01:39:07;;;;;;;9.70;4.15;;;;;;;3.18;75.73;101120.97;4879674;29;20033;-68
2022/01/07 01:41:33;;;;;;;10.68;4.60;;;;;;;3.19;77.04;101118.13;4883083;29;20037;-69
2022/01/07 01:43:58;;;;;;;12.23;4.20;;;;;;;3.20;76.67;101124.31;4879504;29;20060;-68
2022/01/07 01:46:24;;;;;;;12.27;4.68;;;;;;;3.21;77.07;101117.13;4859329;29;20117;-68
2022/01/07 01:48:49;;;;;;;12.23;4.50;;;;;;;3.24;76.64;101101.56;4863225;29;20064;-68
2022/01/07 01:51:14;;;;;;;12.57;4.00;;;;;;;3.18;76.38;101095.06;4879074;29;20032;-68
2022/01/07 01:53:40;;;;;;;10.10;3.85;;;;;;;3.21;75.57;101087.72;4879547;29;20045;-69
2022/01/07 01:56:05;;;;;;;13.68;4.28;;;;;;;3.18;76.55;101087.03;4878996;29;20065;-68
2022/01/07 01:58:31;;;;;;;10.27;3.65;;;;;;;3.19;76.19;101083.38;4879587;29;20116;-69
2022/01/07 02:00:56;;;;;;;11.27;3.85;;;;;;;3.19;76.20;101080.69;4876762;29;20040;-68
2022/01/07 02:03:22;;;;;;;8.13;3.10;;;;;;;3.24;75.20;101082.84;4877434;29;20043;-69
2022/01/07 02:05:47;;;;;;;7.78;3.58;;;;;;;3.21;75.66;101088.53;4877991;29;20060;-69
2022/01/07 02:08:13;;;;;;;13.68;3.75;;;;;;;3.23;76.20;101081.19;4878716;29;20029;-69
2022/01/07 02:10:38;;;;;;;9.23;3.17;;;;;;;3.25;76.55;101071.16;4882717;29;20370;-69
2022/01/07 02:13:04;;;;;;;9.95;3.58;;;;;;;3.24;76.31;101072.16;4897526;29;20062;-69
2022/01/07 02:15:29;;;;;;;12.23;3.65;;;;;;;3.30;75.79;101076.81;4879083;29;20057;-68
2022/01/07 02:17:55;;;;;;;13.48;3.85;;;;;;;3.26;76.52;101085.34;4878024;29;20455;-69
2022/01/07 02:20:23;;;;;;;14.15;3.72;;;;;;;3.25;77.06;101079.19;4878038;29;20029;-69
2022/01/07 02:22:48;;;;;;;10.70;3.20;;;;;;;3.22;77.06;101092.91;4878977;29;20066;-68
2022/01/07 02:25:16;;;;;;;9.15;3.50;;;;;;;3.22;77.53;101073.34;4867169;29;20073;-68
2022/01/07 02:27:44;;;;;;;11.27;3.20;;;;;;;3.14;78.21;101072.34;4879124;29;20037;-69
2022/01/07 02:30:13;;;;;;;10.05;3.13;;;;;;;3.14;79.12;101072.34;4878060;29;20084;-68
2022/01/07 02:32:38;;;;;;;9.73;3.42;;;;;;;3.17;79.00;101066.66;4879076;29;20029;-67
2022/01/07 02:35:05;;;;;;;15.57;3.63;;;;;;;3.09;80.20;101066.66;4878806;29;20037;-68
2022/01/07 02:37:31;;;;;;;12.18;3.70;;;;;;;3.04;81.28;101070.88;4877820;29;20041;-69
2022/01/07 02:39:56;;;;;;;12.23;3.45;;;;;;;3.01;81.14;101056.84;4878322;29;20040;-69
2022/01/07 02:42:22;;;;;;;8.07;3.50;;;;;;;2.91;82.55;101056.19;4878241;29;20041;-69
2022/01/07 02:44:47;;;;;;;11.27;3.67;;;;;;;2.91;82.60;101066.88;4878012;29;20039;-68
2022/01/07 02:47:12;;;;;;;8.30;3.90;;;;;;;2.88;82.71;101055.69;4878339;29;20113;-69
2022/01/07 02:49:38;;;;;;;10.95;3.90;;;;;;;2.88;83.20;101059.19;4878762;29;20029;-69
2022/01/07 02:52:03;;;;;;;9.77;3.63;;;;;;;2.90;83.57;101054.53;4877921;29;20064;-70
2022/01/07 02:54:29;;;;;;;8.50;3.75;;;;;;;2.86;83.16;101047.03;4878384;29;20389;-68
2022/01/07 02:56:54;;;;;;;8.32;3.65;;;;;;;2.89;83.88;101052.03;4878603;29;20025;-70
2022/01/07 02:59:20;;;;;;;13.27;3.97;;;;;;;2.83;83.78;101037.50;4878056;29;20088;-69
2022/01/07 03:01:45;;;;;;;13.38;3.80;;;;;;;2.81;84.26;101037.66;4876208;29;20039;-69
2022/01/07 03:04:10;;;;;;;16.58;4.40;;;;;;;2.85;84.57;101038.16;4878429;29;20385;-70
2022/01/07 03:06:36;;;;;;;14.98;3.97;;;;;;;2.84;84.73;101036.50;4878821;29;20029;-70
2022/01/07 03:09:05;;;;;;;9.15;3.90;;;;;;;2.80;85.11;101038.66;4877194;29;20566;-68
2022/01/07 03:11:30;;;;;;;8.98;3.72;;;;;;;2.77;85.34;101033.66;4878057;29;20040;-68
2022/01/07 03:13:56;;;;;;;9.90;3.97;;;;;;;2.75;85.75;101022.31;4861680;29;20061;-69
2022/01/07 03:16:21;;;;;;;6.65;4.07;;;;;;;2.62;85.51;101019.31;4877911;29;20089;-69
2022/01/07 03:18:47;;;;;;;11.50;3.70;;;;;;;2.57;86.64;101009.13;4878653;29;20040;-69
2022/01/07 03:21:14;;;;;;;7.90;3.88;;;;;;;2.58;86.43;101009.97;4878870;29;20107;-69
2022/01/07 03:23:40;;;;;;;13.40;3.90;;;;;;;2.57;86.22;101008.31;4881645;29;20033;-69
2022/01/07 03:26:07;;;;;;;12.05;4.13;;;;;;;2.53;86.80;101002.44;4882096;29;20036;-69
2022/01/07 03:28:32;;;;;;;9.02;4.05;;;;;;;2.53;86.96;100998.94;4881491;29;20044;-70
2022/01/07 03:30:57;;;;;;;10.75;3.78;;;;;;;2.52;87.29;100999.94;4880603;29;20108;-70
2022/01/07 03:33:23;;;;;;;9.80;4.05;;;;;;;2.50;86.76;100985.94;4863339;29;20360;-69
2022/01/07 03:35:48;;;;;;;13.52;4.28;;;;;;;2.53;86.91;100996.28;4878733;29;20049;-71
2022/01/07 03:38:14;;;;;;;10.30;4.45;;;;;;;2.54;88.27;100995.28;4881846;29;20080;-68
2022/01/07 03:40:39;;;;;;;11.05;4.47;;;;;;;2.53;87.84;100997.09;4881006;29;20037;-70
2022/01/07 03:43:05;;;;;;;10.27;3.88;;;;;;;2.58;87.70;100996.59;4881868;29;20033;-69
2022/01/07 03:45:30;;;;;;;8.30;4.43;;;;;;;2.60;87.96;100995.44;4881400;29;20072;-70
2022/01/07 03:47:56;;;;;;;10.48;3.95;;;;;;;2.62;88.78;100996.09;4881632;29;20043;-72
2022/01/07 03:50:25;;;;;;;9.90;4.10;;;;;;;2.61;87.84;100991.78;4881269;29;20087;-70
2022/01/07 03:52:51;;;;;;;9.88;4.20;;;;;;;2.57;88.61;100985.09;4881458;29;20073;-69
2022/01/07 03:55:21;;;;;;;13.25;4.72;;;;;;;2.55;88.25;100988.91;4874482;29;20119;-70
2022/01/07 03:57:46;;;;;;;11.75;3.95;;;;;;;2.54;88.51;100980.09;4881752;29;20033;-69
2022/01/07 04:00:20;;;;;;;9.95;4.45;;;;;;;2.53;88.61;100972.25;4880671;29;20113;-69
2022/01/07 04:02:46;;;;;;;9.05;4.22;;;;;;;2.56;88.88;100971.91;4879145;29;20451;-69
2022/01/07 04:05:14;;;;;;;10.77;4.00;;;;;;;2.52;88.48;100970.56;4880910;29;20037;-69
2022/01/07 04:07:39;;;;;;;10.13;4.13;;;;;;;2.55;89.31;100962.22;4881578;29;20044;-70
2022/01/07 04:10:05;;;;;;;10.32;4.15;;;;;;;2.54;89.67;100961.38;4880856;29;20044;-69
2022/01/07 04:12:30;;;;;;;9.13;4.13;;;;;;;2.54;89.56;100958.72;4881231;29;20068;-69
2022/01/07 04:15:08;;;;;;;10.95;4.40;;;;;;;2.56;89.62;100948.69;4880799;29;20037;-69
2022/01/07 04:17:35;;;;;;;8.88;4.00;;;;;;;2.53;89.82;100950.88;4880296;29;20477;-69
2022/01/07 04:20:00;;;;;;;8.90;4.03;;;;;;;2.53;89.71;100948.19;4881112;29;20124;-69
2022/01/07 04:22:26;;;;;;;8.25;4.00;;;;;;;2.54;89.49;100953.38;4880667;29;20495;-69
2022/01/07 04:24:51;;;;;;;9.05;4.10;;;;;;;2.58;89.83;100953.84;4880735;29;20033;-70
2022/01/07 04:27:16;;;;;;;6.38;3.75;;;;;;;2.59;89.88;100956.34;4880498;29;20096;-69
2022/01/07 04:29:41;;;;;;;9.80;4.00;;;;;;;2.62;89.90;100958.69;4879955;29;20084;-69
2022/01/07 04:32:09;;;;;;;7.65;4.00;;;;;;;2.64;89.83;100953.16;4880580;29;20033;-70
2022/01/07 04:34:34;;;;;;;9.32;4.18;;;;;;;2.64;90.14;100959.38;4879901;29;20117;-69
2022/01/07 04:36:59;;;;;;;8.95;4.38;;;;;;;2.68;90.05;100959.84;4880853;29;20116;-70
2022/01/07 04:39:24;;;;;;;9.23;4.47;;;;;;;2.72;90.37;100960.34;4879526;29;20466;-68
2022/01/07 04:41:50;;;;;;;8.18;4.57;;;;;;;2.71;91.00;100964.84;4880433;29;20035;-70
2022/01/07 04:44:16;;;;;;;8.88;4.85;;;;;;;2.73;89.98;100959.34;4880368;29;20104;-70
2022/01/07 04:46:41;;;;;;;9.77;5.22;;;;;;;2.73;90.39;100962.84;4880334;29;20449;-72
2022/01/07 04:49:07;;;;;;;6.97;4.10;;;;;;;2.74;90.34;100961.00;4880025;29;20048;-71
2022/01/07 04:51:32;;;;;;;9.43;4.40;;;;;;;2.74;90.40;100953.00;4860506;29;20481;-71
2022/01/07 04:53:57;;;;;;;9.30;4.30;;;;;;;2.80;90.74;100958.47;4863001;29;20057;-70
2022/01/07 04:56:22;;;;;;;8.13;4.65;;;;;;;2.80;90.25;100942.44;4879774;29;20036;-71
2022/01/07 04:58:48;;;;;;;8.57;4.57;;;;;;;2.79;90.99;100953.31;4879981;29;20529;-71
2022/01/07 05:01:13;;;;;;;9.27;4.60;;;;;;;2.81;91.06;100941.44;4877520;29;20025;-69
2022/01/07 05:03:38;;;;;;;9.93;5.18;;;;;;;2.83;90.77;100941.28;4880168;29;20041;-71
2022/01/07 05:08:47;;;;;;;8.77;4.93;;;;;;;2.84;91.13;100938.44;4880104;29;20075;-71
2022/01/07 05:11:12;;;;;;;11.60;5.38;;;;;;;2.84;91.05;100929.59;4869396;29;20065;-69
2022/01/07 05:13:38;;;;;;;11.52;5.13;;;;;;;2.84;91.73;100930.41;4861396;29;20037;-69
2022/01/07 05:16:03;;;;;;;9.90;5.25;;;;;;;2.88;91.39;100928.22;4878243;29;20472;-70
2022/01/07 05:18:28;;;;;;;10.88;5.40;;;;;;;2.91;91.69;100922.53;4880298;29;20037;-71
2022/01/07 05:20:54;;;;;;;10.80;5.72;;;;;;;2.88;91.51;100916.69;4872028;29;20085;-70
2022/01/07 05:23:19;;;;;;;9.52;5.75;;;;;;;2.92;91.79;100926.88;4877697;29;20039;-71
2022/01/07 05:25:44;;;;;;;13.13;5.80;;;;;;;2.92;91.40;100926.06;4881873;29;20476;-69
2022/01/07 05:28:10;;;;;;;9.88;5.55;;;;;;;2.94;92.33;100924.03;4879889;29;20029;-71
2022/01/07 05:30:35;;;;;;;8.40;5.80;;;;;;;2.95;91.77;100921.19;4878868;29;20032;-70
2022/01/07 05:33:00;;;;;;;10.20;6.13;;;;;;;3.03;90.96;100924.84;4879812;29;20033;-70
2022/01/07 05:35:26;;;;;;;10.77;5.80;;;;;;;2.96;91.65;100919.31;4879401;29;20032;-70
2022/01/07 05:37:52;;;;;;;11.57;5.88;;;;;;;2.98;91.95;100922.69;4881149;29;20061;-69
2022/01/07 05:40:18;;;;;;;9.23;5.80;;;;;;;2.99;92.01;100925.19;4882954;29;20033;-70
2022/01/07 05:42:43;;;;;;;9.98;6.10;;;;;;;3.01;91.90;100911.66;4891101;29;20031;-70
2022/01/07 05:45:09;;;;;;;10.73;6.10;;;;;;;3.03;91.89;100912.28;4873150;29;20025;-75
2022/01/07 05:47:34;;;;;;;10.65;6.32;;;;;;;3.08;91.61;100917.13;4860967;29;20504;-70
2022/01/07 05:49:59;;;;;;;12.73;6.68;;;;;;;3.09;91.55;100916.13;4871773;29;20060;-75
2022/01/07 05:52:25;;;;;;;15.35;6.65;;;;;;;3.10;91.76;100917.78;4893421;29;20052;-76
2022/01/07 05:54:50;;;;;;;10.05;6.43;;;;;;;3.11;92.13;100914.09;4872726;29;20166;-73
2022/01/07 05:57:16;;;;;;;12.60;6.90;;;;;;;3.11;92.03;100912.28;4878992;29;20052;-71
2022/01/07 05:59:41;;;;;;;13.30;7.30;;;;;;;3.12;92.20;100907.75;4878460;29;20076;-69
2022/01/07 06:02:06;;;;;;;16.70;6.55;;;;;;;3.15;91.60;100897.53;4877095;29;20068;-70
2022/01/07 06:04:32;;;;;;;10.25;6.45;;;;;;;3.15;92.18;100897.53;4878735;29;20025;-70
2022/01/07 06:06:57;;;;;;;12.77;6.85;;;;;;;3.24;91.29;100900.16;4877533;29;20037;-69
2022/01/07 06:09:22;;;;;;;11.80;6.53;;;;;;;3.19;91.64;100904.19;4878726;29;20033;-69
2022/01/07 06:11:47;;;;;;;12.25;6.88;;;;;;;3.19;91.94;100909.53;4879416;29;20064;-70
2022/01/07 06:14:13;;;;;;;13.90;6.32;;;;;;;3.21;91.55;100912.03;4878861;29;20029;-69
2022/01/07 06:16:38;;;;;;;12.65;6.65;;;;;;;3.20;91.93;100910.38;4878833;29;20033;-69
2022/01/07 06:19:03;;;;;;;11.65;6.57;;;;;;;3.23;91.56;100912.72;4877993;29;20036;-69
2022/01/07 06:21:30;;;;;;;12.77;7.05;;;;;;;3.27;92.01;100918.53;4878896;29;20116;-69
2022/01/07 06:23:55;;;;;;;11.35;6.30;;;;;;;3.32;91.47;100919.69;4878731;29;20071;-70
2022/01/07 06:26:21;;;;;;;11.02;6.57;;;;;;;3.28;91.91;100912.19;4878932;29;20068;-69
2022/01/07 06:28:46;;;;;;;14.05;6.22;;;;;;;3.28;91.16;100918.38;4878827;29;20088;-69
2022/01/07 06:31:11;;;;;;;11.77;6.45;;;;;;;3.29;91.53;100930.75;4878257;29;20032;-69
2022/01/07 06:33:37;;;;;;;13.30;7.13;;;;;;;3.31;91.78;100907.31;4878209;29;20384;-69
2022/01/07 06:36:03;;;;;;;10.82;6.45;;;;;;;3.31;91.71;100904.63;4878554;29;20056;-70
2022/01/07 06:38:28;;;;;;;11.52;6.53;;;;;;;3.34;91.52;100909.63;4878436;29;20033;-69
2022/01/07 06:40:53;;;;;;;11.25;6.90;;;;;;;3.35;91.39;100913.97;4878092;29;20502;-69
2022/01/07 06:43:19;;;;;;;12.15;6.93;;;;;;;3.38;91.81;100918.13;4879008;29;20037;-69
2022/01/07 06:45:44;;;;;;;13.73;6.85;;;;;;;3.40;91.39;100923.31;4878386;29;20422;-69
2022/01/07 06:48:09;;;;;;;15.35;7.35;;;;;;;3.39;91.54;100913.63;4878939;29;20120;-69
2022/01/07 06:50:34;;;;;;;15.15;6.72;;;;;;;3.39;91.54;100909.09;4877858;29;20045;-69
2022/01/07 06:53:00;;;;;;;13.50;6.97;;;;;;;3.41;91.44;100912.41;4877083;29;20057;-69
2022/01/07 06:55:25;;;;;;;13.10;7.10;;;;;;;3.45;91.33;100912.91;4877975;29;20089;-69
2022/01/07 06:57:51;;;;;;;14.15;7.22;;;;;;;3.42;91.37;100910.59;4877562;29;20388;-69
2022/01/07 07:00:16;;;;;;;15.38;7.63;;;;;;;3.42;91.21;100914.09;4878209;29;20033;-70
2022/01/07 07:02:42;;;;;;;15.52;7.30;;;;;;;3.43;91.50;100901.53;4845366;29;20062;-69
2022/01/07 07:05:07;;;;;;;11.85;7.50;;;;;;;3.46;91.34;100904.72;4877103;29;20477;-69
2022/01/07 07:07:33;;;;;;;13.23;7.57;;;;;;;3.44;91.92;100908.56;4878557;29;20037;-70
2022/01/07 07:09:58;;;;;;;12.65;7.25;;;;;;;3.50;91.38;100911.38;4878274;29;20124;-68
2022/01/07 07:12:23;;;;;;;14.55;8.05;;;;;;;3.47;91.63;100917.09;4878278;29;20037;-68
2022/01/07 07:14:48;;;;;;;13.23;7.75;;;;;;;3.50;91.45;100916.75;4874642;29;20111;-70
2022/01/07 07:17:14;;;;;;;13.30;7.50;;;;;;;3.49;92.24;100912.38;4860017;29;20038;-69
2022/01/07 07:19:40;;;;;;;13.15;7.38;;;;;;;3.53;91.88;100912.84;4865805;29;20099;-69
2022/01/07 07:22:05;;;;;;;14.38;7.40;;;;;;;3.55;91.45;100916.22;4878328;29;20135;-70
2022/01/07 07:24:30;;;;;;;12.63;8.25;;;;;;;3.54;91.88;100919.88;4877908;29;20385;-69
2022/01/07 07:26:57;;;;;;;17.10;8.25;;;;;;;3.59;91.14;100914.81;4878284;29;20033;-69
2022/01/07 07:29:22;;;;;;;14.10;7.65;;;;;;;3.61;91.61;100911.97;4878325;29;20033;-69
2022/01/07 07:31:50;;;;;;;12.95;8.50;;;;;;;3.59;91.25;100924.69;4878486;29;20033;-69
2022/01/07 07:36:44;;;;;;;14.88;7.82;;;;;;;3.66;91.44;100923.81;4876287;29;20077;-72
2022/01/07 07:39:11;;;;;;;15.13;7.70;;;;;;;3.65;91.23;100927.50;4877662;29;20033;-74
2022/01/07 07:41:38;;;;;;;13.77;7.88;;;;;;;3.66;91.72;100923.81;4877584;29;20414;-73
2022/01/07 07:44:05;;;;;;;16.25;8.63;;;;;;;3.68;91.62;100921.81;4878374;29;20044;-73
2022/01/07 07:46:32;;;;;;;12.07;7.53;;;;;;;3.68;91.68;100907.56;4877896;29;20152;-70
2022/01/07 07:49:00;;;;;;;17.02;8.23;;;;;;;3.68;91.77;100900.41;4877567;29;20434;-70
2022/01/07 07:51:26;;;;;;;14.93;8.25;;;;;;;3.71;91.64;100897.38;4878074;29;20029;-70
2022/01/07 07:53:52;;;;;;;13.77;8.27;;;;;;;3.70;91.54;100902.91;4877620;29;20078;-70
2022/01/07 07:56:17;;;;;;;12.45;7.90;;;;;;;3.77;91.38;100916.38;4862303;29;20041;-70
2022/01/07 07:58:43;;;;;;;15.93;8.50;;;;;;;3.77;91.46;100914.53;4873546;29;20040;-71
2022/01/07 08:01:10;;;;;;;19.05;8.27;;;;;;;3.82;91.07;100924.69;4875608;29;20033;-73
2022/01/07 08:03:35;;;;;;;11.55;7.78;;;;;;;3.81;91.27;100923.88;4876565;29;20025;-74
2022/01/07 08:06:00;;;;;;;16.20;7.75;;;;;;;3.83;91.26;100921.84;4877313;29;20056;-72
2022/01/07 08:08:26;;;;;;;11.50;7.70;;;;;;;3.87;91.17;100925.84;4855443;29;20423;-70
2022/01/07 08:10:55;;;;;;;13.43;8.15;;;;;;;3.88;91.11;100919.47;4880767;29;20028;-71
2022/01/07 08:15:58;;;;;;;14.98;7.75;;;;;;;3.92;91.53;100909.25;4881220;29;20044;-70
2022/01/07 08:18:24;;;;;;;12.25;7.65;;;;;;;3.93;90.78;100904.72;4879967;29;20028;-69
2022/01/07 08:20:50;;;;;;;14.20;7.40;;;;;;;3.88;90.74;100891.84;4863917;29;20025;-71
2022/01/07 08:23:16;;;;;;;22.30;8.90;;;;;;;3.91;91.10;100891.53;4881177;29;20029;-71
2022/01/07 08:25:42;;;;;;;16.60;7.75;;;;;;;3.93;91.61;100889.50;4880570;29;20103;-78
2022/01/07 08:28:08;;;;;;;14.82;7.88;;;;;;;3.93;91.44;100881.47;4880362;29;20033;-70
2022/01/07 08:30:47;;;;;;;15.32;8.15;;;;;;;3.96;90.98;100878.41;4880775;29;20029;-76
2022/01/07 08:35:57;;;;;;;17.52;8.30;;;;;;;3.96;90.74;100897.16;4880058;29;20466;-70
2022/01/07 08:38:22;;;;;;;15.00;7.63;;;;;;;3.99;90.61;100890.63;4883604;29;20033;-70
2022/01/07 08:40:47;;;;;;;18.25;7.88;;;;;;;3.96;90.70;100889.13;4877268;29;20393;-69
2022/01/07 08:43:12;;;;;;;14.20;7.70;;;;;;;4.00;90.98;100890.44;4880108;29;20033;-69
2022/01/07 08:45:42;;;;;;;15.82;7.93;;;;;;;4.03;90.80;100890.06;4880436;29;20028;-70
2022/01/07 08:48:07;;;;;;;17.88;7.97;;;;;;;4.03;90.49;100895.44;4879879;29;20033;-70
2022/01/07 08:50:32;;;;;;;13.93;7.68;;;;;;;4.07;90.91;100895.91;4880221;29;20080;-71
2022/01/07 08:53:01;;;;;;;12.48;7.30;;;;;;;4.10;90.61;100895.53;4880518;29;20064;-70
2022/01/07 08:55:26;;;;;;;16.10;7.75;;;;;;;4.10;90.44;100900.06;4880458;29;20044;-71
2022/01/07 08:57:51;;;;;;;12.85;7.72;;;;;;;4.11;90.80;100910.59;4879557;29;20029;-70
2022/01/07 09:00:16;;;;;;;16.13;7.97;;;;;;;4.11;90.56;100913.28;4879945;29;20124;-71
2022/01/07 09:02:42;;;;;;;15.45;7.53;;;;;;;4.15;89.96;100908.38;4846811;29;20037;-75
2022/01/07 09:05:07;;;;;;;16.75;7.70;;;;;;;4.10;90.44;100905.41;4865970;29;20037;-70
2022/01/07 09:07:34;;;;;;;15.68;7.35;;;;;;;4.14;89.93;100907.56;4876728;29;20037;-71
2022/01/07 09:09:59;;;;;;;15.07;7.78;;;;;;;4.12;90.32;100903.38;4879290;29;20119;-74
2022/01/07 09:12:24;;;;;;;13.15;7.93;;;;;;;4.11;90.53;100905.25;4879607;29;20108;-78
2022/01/07 09:14:49;;;;;;;16.13;7.93;;;;;;;4.15;90.53;100903.03;4880177;29;20041;-72
2022/01/07 09:17:15;;;;;;;14.73;7.28;;;;;;;4.13;90.80;100903.19;4880049;29;20033;-70
2022/01/07 09:19:40;;;;;;;16.60;7.38;;;;;;;4.17;90.97;100909.03;4880063;29;20072;-71
2022/01/07 09:22:05;;;;;;;15.63;7.40;;;;;;;4.18;90.87;100900.84;4880158;29;20039;-72
2022/01/07 09:24:31;;;;;;;12.75;7.00;;;;;;;4.20;89.90;100895.28;4862646;29;20041;-71
2022/01/07 09:26:57;;;;;;;15.88;7.25;;;;;;;4.21;90.05;100900.47;4863482;29;20092;-71
2022/01/07 09:29:23;;;;;;;17.00;7.45;;;;;;;4.23;90.45;100906.47;4880173;29;20033;-71
2022/01/07 09:31:50;;;;;;;14.40;7.13;;;;;;;4.25;90.20;100914.31;4863246;29;20105;-71
2022/01/07 09:34:15;;;;;;;15.90;7.13;;;;;;;4.25;89.77;100898.25;4879991;29;20037;-72
2022/01/07 09:36:40;;;;;;;12.90;6.97;;;;;;;4.28;90.17;100892.53;4879779;29;20076;-71
2022/01/07 09:39:05;;;;;;;13.43;7.07;;;;;;;4.30;89.96;100895.00;4880053;29;20037;-71
2022/01/07 09:41:31;;;;;;;16.77;7.05;;;;;;;4.32;89.60;100896.50;4879830;29;20464;-72
2022/01/07 09:43:57;;;;;;;14.43;6.90;;;;;;;4.30;90.08;100892.34;4863046;29;20033;-76
2022/01/07 09:46:22;;;;;;;13.48;6.50;;;;;;;4.38;89.20;100897.63;4876702;29;21549;-70
2022/01/07 09:48:47;;;;;;;14.05;6.60;;;;;;;4.40;89.60;100901.78;4879450;29;20032;-70
2022/01/07 09:51:14;;;;;;;11.98;6.38;;;;;;;4.46;90.14;100894.03;4879674;29;20053;-71
2022/01/07 09:53:40;;;;;;;13.80;6.68;;;;;;;4.50;89.41;100906.03;4878883;29;20056;-72
2022/01/07 09:56:06;;;;;;;12.82;6.68;;;;;;;4.55;89.23;100900.97;4879204;29;20041;-71
2022/01/07 09:58:35;;;;;;;14.52;6.65;;;;;;;4.56;88.98;100897.25;4879738;29;20025;-74
2022/01/07 10:01:06;;;;;;;12.82;6.30;;;;;;;4.57;88.84;100880.16;4877229;29;20044;-71
2022/01/07 10:03:41;;;;;;;11.48;6.07;;;;;;;4.60;88.80;100879.78;4879607;29;20108;-70
2022/01/07 10:06:22;;;;;;;17.63;7.20;;;;;;;4.62;89.39;100885.81;4861695;29;20045;-72
2022/01/07 10:09:10;;;;;;;13.23;5.80;;;;;;;4.72;88.41;100888.19;4861899;29;20112;-71
2022/01/07 10:11:36;;;;;;;8.82;6.07;;;;;;;4.66;88.41;100889.78;4860621;29;20034;-71
2022/01/07 10:14:22;;;;;;;10.52;5.68;;;;;;;4.68;88.57;100882.41;4860750;29;20045;-71
2022/01/07 10:16:53;;;;;;;16.02;5.90;;;;;;;4.74;88.09;100878.97;4860540;29;20030;-74
2022/01/07 10:19:35;;;;;;;;;;;;;;;4.82;88.35;100883.41;4876808;29;20081;-76
2022/01/07 10:22:09;;;;;;;12.23;5.57;;;;;;;4.77;87.77;100885.78;4878945;29;20400;-68
2022/01/07 10:25:00;;;;;;;12.27;5.38;;;;;;;4.76;87.68;100890.31;4878921;29;20029;-70
2022/01/07 10:27:34;;;;;;;11.53;5.40;;;;;;;4.77;87.52;100875.91;4878538;29;20029;-70
2022/01/07 10:29:59;;;;;;;12.57;5.25;;;;;;;4.75;88.12;100861.84;4878882;29;20029;-68
2022/01/07 10:32:27;;;;;;;13.23;5.63;;;;;;;4.78;87.47;100853.44;4878012;29;20044;-70
2022/01/07 10:35:05;;;;;;;11.90;5.53;;;;;;;4.87;87.23;100866.75;4878663;29;20373;-71
2022/01/07 10:37:31;;;;;;;12.57;5.55;;;;;;;4.81;87.51;100870.19;4875968;29;20504;-72
2022/01/07 10:39:56;;;;;;;16.20;5.25;;;;;;;4.86;87.42;100870.44;4878373;29;20115;-73
2022/01/07 10:42:22;;;;;;;12.68;4.65;;;;;;;4.83;87.50;100857.41;4878623;29;20080;-73
2022/01/07 10:45:02;;;;;;;14.50;5.25;;;;;;;4.90;86.71;100863.69;4878754;29;20037;-72
2022/01/07 10:47:28;;;;;;;9.40;4.90;;;;;;;4.90;86.70;100861.00;4867405;29;20052;-71
2022/01/07 10:50:13;;;;;;;13.10;5.05;;;;;;;4.98;87.26;100852.84;4877155;29;20119;-71
2022/01/07 10:52:39;;;;;;;15.07;5.03;;;;;;;5.02;86.63;100856.81;4878496;29;20374;-72
2022/01/07 10:55:13;;;;;;;13.80;5.20;;;;;;;5.09;87.27;100868.47;4878281;29;20051;-72
2022/01/07 10:57:44;;;;;;;11.95;4.80;;;;;;;5.13;85.94;100847.44;4878499;29;20029;-77
2022/01/07 11:00:15;;;;;;;9.88;4.82;;;;;;;5.12;86.00;100848.50;4861653;29;20040;-72
2022/01/07 11:02:41;;;;;;;10.00;4.80;;;;;;;5.14;85.91;100841.06;4852168;29;20037;-72
2022/01/07 11:05:07;;;;;;;12.48;4.55;;;;;;;5.13;85.79;100845.63;4878405;29;20097;-72
2022/01/07 11:07:33;;;;;;;14.52;5.00;;;;;;;5.19;86.29;100851.22;4878091;29;20108;-72
2022/01/07 11:09:58;;;;;;;10.68;4.82;;;;;;;5.22;86.79;100846.31;4878456;29;20081;-72
2022/01/07 11:12:25;;;;;;;13.13;5.05;;;;;;;5.27;86.56;100851.13;4876264;29;20037;-71
2022/01/07 11:14:51;;;;;;;9.65;4.72;;;;;;;5.32;86.72;100848.69;4878761;29;20112;-72
2022/01/07 11:17:23;;;;;;;12.20;4.53;;;;;;;5.35;85.19;100859.06;4878147;29;20473;-72
2022/01/07 11:19:54;;;;;;;13.07;4.88;;;;;;;5.29;85.62;100852.59;4878216;29;20036;-77
2022/01/07 11:22:21;;;;;;;12.10;4.63;;;;;;;5.26;86.11;100852.16;4862360;29;20457;-73
2022/01/07 11:25:10;;;;;;;13.48;4.85;;;;;;;5.31;86.38;100849.72;4877981;29;20032;-73
2022/01/07 11:27:48;;;;;;;13.82;4.63;;;;;;;5.29;86.74;100854.44;4878533;29;20037;-72
2022/01/07 11:30:17;;;;;;;12.77;4.43;;;;;;;5.26;85.52;100854.81;4878192;29;20033;-73
2022/01/07 11:32:44;;;;;;;12.63;4.97;;;;;;;5.19;87.70;100852.06;4862164;29;20073;-75
2022/01/07 11:35:19;;;;;;;11.02;4.70;;;;;;;5.25;87.19;100848.59;4860243;29;20153;-73